Maldives Meteorological Service

TAFS

Station TAF
VRMM
VRMM 280500Z 2806/2912 30004KT 9999 FEW018 TEMPO 2806/2812 FEW019CB=
VRMH
VRMH 280500Z 2806/2912 29005KT 9999 FEW018 TEMPO 2806/2812 FEW019CB=
VRMK
VRMK 280500Z 2806/2906 VRB02KT 9999 FEW018 TEMPO 2806/2812 FEW019CB=
VRMT
VRMT 280500Z 2806/2906 VRB02KT 9999 FEW018 TEMPO 2806/2812 FEW018CB=
VRMG
VRMG 280500Z 2806/2912 21004KT 9999 FEW018 TEMPO 2806/2812 FEW018CB=